Time;durP1;ratioP1;P1;durP2;ratioP2;P2;SDS_P1;SDS_P2;PMS_P1;PMS_P2;Temp;Humidity;BMP_temperature;BMP_pressure;BME280_temperature;BME280_humidity;BME280_pressure;Samples;Min_cycle;Max_cycle;Signal;HPM_P1;HPM_P2
2021/04/16 00:01:57;;;;;;;22.50;17.83;;;;;;;11.02;63.46;71793.44;5035864;28;20021;-93
2021/04/16 00:04:23;;;;;;;25.23;16.98;;;;;;;10.20;63.26;71698.69;5035874;28;20118;-92
2021/04/16 00:06:50;;;;;;;25.85;17.92;;;;;;;11.05;63.79;71794.25;5033932;28;20029;-92
2021/04/16 00:09:17;;;;;;;29.27;18.25;;;;;;;10.52;64.54;71735.66;5034018;28;20121;-90
2021/04/16 00:11:44;;;;;;;26.30;17.10;;;;;;;11.01;65.47;71786.75;5037093;28;20522;-92
2021/04/16 00:14:13;;;;;;;25.10;16.55;;;;;;;10.29;65.68;71706.06;5033166;28;20163;-91
2021/04/16 00:16:40;;;;;;;29.30;17.60;;;;;;;10.97;66.26;71784.72;5019627;28;20026;-91
2021/04/16 00:19:07;;;;;;;30.33;16.52;;;;;;;10.67;66.91;71753.53;5034738;28;20557;-90
2021/04/16 00:21:34;;;;;;;24.30;16.35;;;;;;;11.04;67.12;71793.06;5038190;28;20033;-91
2021/04/16 00:24:01;;;;;;;25.13;15.07;;;;;;;11.24;67.22;71812.97;5042545;28;20021;-91
2021/04/16 00:26:28;;;;;;;25.25;13.57;;;;;;;11.03;68.35;71791.88;5044505;28;20053;-91
2021/04/16 00:28:54;;;;;;;20.00;14.40;;;;;;;10.77;68.26;71764.81;5047865;28;20056;-89
2021/04/16 00:31:25;;;;;;;22.77;12.25;;;;;;;10.73;68.71;71757.31;5051781;28;20021;-90
2021/04/16 00:33:56;;;;;;;19.27;12.07;;;;;;;11.03;69.58;71794.63;5042887;28;20036;-93
2021/04/16 00:36:23;;;;;;;19.38;13.93;;;;;;;9.98;69.93;71674.28;5037797;28;20017;-90
2021/04/16 00:38:51;;;;;;;18.25;12.25;;;;;;;10.52;71.21;71736.25;5044612;28;20041;-89
2021/04/16 00:41:21;;;;;;;23.67;13.55;;;;;;;10.92;73.56;71781.50;5043596;28;20057;-87
2021/04/16 00:43:49;;;;;;;24.52;13.13;;;;;;;10.84;74.45;71769.22;5042975;28;20041;-86
2021/04/16 00:46:47;;;;;;;26.30;14.32;;;;;;;10.51;74.88;71731.69;5044792;28;20037;-88
2021/04/16 00:49:20;;;;;;;21.42;13.98;;;;;;;11.00;74.63;71785.53;5049969;28;20502;-87
2021/04/16 00:51:55;;;;;;;15.63;12.68;;;;;;;10.47;75.10;71729.69;5048656;28;20055;-88
2021/04/16 00:54:37;;;;;;;26.35;17.30;;;;;;;10.86;76.85;71771.63;5028344;28;20049;-91
2021/04/16 00:57:06;;;;;;;34.90;17.33;;;;;;;10.59;77.69;71738.50;5042529;28;20025;-87
2021/04/16 00:59:36;;;;;;;22.63;14.35;;;;;;;10.81;78.74;71769.59;5034655;28;20016;-88
2021/04/16 01:02:04;;;;;;;20.58;15.13;;;;;;;10.67;80.27;71752.91;5034097;28;20482;-88
2021/04/16 01:04:32;;;;;;;32.30;17.73;;;;;;;10.50;81.20;71730.50;5036187;28;20079;-87
2021/04/16 01:07:02;;;;;;;31.65;17.52;;;;;;;9.75;82.43;71644.16;5032437;28;20039;-87
2021/04/16 01:09:30;;;;;;;31.92;18.02;;;;;;;10.19;82.75;71697.50;5033833;28;20017;-87
2021/04/16 01:11:58;;;;;;;28.88;17.85;;;;;;;9.59;82.60;71629.03;5032468;28;20041;-88
2021/04/16 01:14:25;;;;;;;29.92;17.30;;;;;;;10.53;82.71;71734.09;5032883;28;20075;-87
2021/04/16 01:16:52;;;;;;;41.13;19.58;;;;;;;10.09;82.43;71680.69;5031586;28;20429;-87
2021/04/16 01:19:35;;;;;;;28.10;17.98;;;;;;;9.58;82.71;71625.13;5021837;28;20121;-87
2021/04/16 01:22:09;;;;;;;29.98;20.13;;;;;;;9.96;82.54;71671.91;5021484;28;20034;-86
2021/04/16 01:24:37;;;;;;;27.58;17.35;;;;;;;10.59;82.90;71740.63;5011455;28;20491;-86
2021/04/16 01:27:12;;;;;;;32.13;20.77;;;;;;;10.58;82.72;71739.44;5011302;28;20050;-86
2021/04/16 01:29:46;;;;;;;38.88;20.42;;;;;;;10.46;83.19;71723.00;5010623;28;20034;-86
2021/04/16 01:32:26;;;;;;;41.22;20.65;;;;;;;9.87;83.92;71658.44;5021085;28;20030;-85
2021/04/16 01:34:54;;;;;;;48.00;21.60;;;;;;;10.23;85.99;71700.13;5029381;28;20057;-84
2021/04/16 01:37:21;;;;;;;39.83;23.63;;;;;;;8.95;88.07;71552.50;5031301;28;20018;-87
2021/04/16 01:39:48;;;;;;;35.97;24.10;;;;;;;9.94;89.95;71666.75;5030181;28;20569;-86
2021/04/16 01:42:15;;;;;;;38.83;25.38;;;;;;;9.37;90.61;71598.56;5029764;28;20036;-88
2021/04/16 01:44:45;;;;;;;38.05;24.23;;;;;;;10.01;90.91;71674.53;5029260;28;20035;-86
2021/04/16 01:47:14;;;;;;;40.97;27.27;;;;;;;9.18;92.09;71582.59;5030385;28;20056;-86
2021/04/16 01:49:48;;;;;;;46.20;27.30;;;;;;;9.93;92.69;71665.56;5032860;28;20420;-83
2021/04/16 01:52:26;;;;;;;47.90;27.58;;;;;;;9.83;93.76;71653.69;5037995;28;20057;-82
2021/04/16 01:54:54;;;;;;;51.10;27.25;;;;;;;9.32;94.61;71598.09;5038675;28;20025;-81
2021/04/16 01:57:30;;;;;;;47.97;28.13;;;;;;;9.84;95.16;71657.63;5030601;28;20029;-84
2021/04/16 01:59:58;;;;;;;47.13;30.17;;;;;;;9.20;95.52;71584.41;5033832;28;20033;-81
2021/04/16 02:02:28;;;;;;;46.83;28.67;;;;;;;9.86;96.33;71660.00;5034487;28;20060;-82
2021/04/16 02:04:56;;;;;;;44.45;28.30;;;;;;;8.62;96.83;71512.88;5034252;28;20025;-81
2021/04/16 02:07:23;;;;;;;56.25;29.77;;;;;;;9.08;97.79;71565.22;5034311;28;20034;-81
2021/04/16 02:09:50;;;;;;;50.80;29.85;;;;;;;9.17;98.70;71578.69;5032545;28;20099;-82
2021/04/16 02:12:22;;;;;;;54.38;32.75;;;;;;;9.57;99.33;71621.19;5033901;28;20087;-81
2021/04/16 02:14:54;;;;;;;51.85;29.40;;;;;;;9.05;99.96;71567.16;5031831;28;20026;-81
2021/04/16 02:17:26;;;;;;;46.60;29.00;;;;;;;9.59;100.00;71629.63;5032718;28;20490;-82
2021/04/16 02:19:54;;;;;;;44.53;30.10;;;;;;;9.64;100.00;71632.25;5031224;28;20108;-81
2021/04/16 02:22:23;;;;;;;46.42;29.88;;;;;;;9.66;100.00;71636.78;5027935;28;20054;-80
2021/04/16 02:24:50;;;;;;;45.25;30.63;;;;;;;9.68;100.00;71639.75;5030727;28;20034;-73
2021/04/16 02:27:19;;;;;;;51.65;29.20;;;;;;;9.61;100.00;71628.69;5032494;28;20057;-73
2021/04/16 02:29:48;;;;;;;41.55;28.55;;;;;;;9.68;100.00;71639.75;5030262;28;20021;-73
2021/04/16 02:32:15;;;;;;;48.22;27.92;;;;;;;9.19;100.00;71583.22;5030985;28;20498;-73
2021/04/16 02:34:42;;;;;;;42.58;26.13;;;;;;;9.45;100.00;71610.81;5031131;28;20017;-72
2021/04/16 02:37:14;;;;;;;45.42;25.15;;;;;;;9.33;100.00;71598.69;5030889;28;20124;-73
2021/04/16 02:39:42;;;;;;;44.25;27.38;;;;;;;9.53;100.00;71616.41;5032090;28;20482;-73
2021/04/16 02:42:10;;;;;;;53.67;27.30;;;;;;;9.68;100.00;71639.16;5032164;28;20483;-73
2021/04/16 02:44:37;;;;;;;59.90;28.75;;;;;;;9.68;100.00;71639.75;5032102;28;20057;-74
2021/04/16 02:47:06;;;;;;;47.22;27.38;;;;;;;9.62;99.91;71627.13;5029523;28;20029;-72
2021/04/16 02:49:33;;;;;;;43.72;26.98;;;;;;;9.77;99.71;71643.78;5031544;28;20025;-72
2021/04/16 02:52:01;;;;;;;45.08;27.10;;;;;;;9.99;98.66;71675.47;5031309;28;20021;-74
2021/04/16 02:54:28;;;;;;;45.83;24.52;;;;;;;9.91;97.98;71660.47;5029897;28;20026;-74
2021/04/16 02:56:55;;;;;;;49.00;25.98;;;;;;;9.83;98.66;71653.69;5032593;28;20383;-72
2021/04/16 02:59:23;;;;;;;45.10;25.45;;;;;;;9.79;98.57;71649.50;5031779;28;20029;-73
2021/04/16 03:01:51;;;;;;;42.83;25.10;;;;;;;9.93;98.16;71668.31;5031731;28;20029;-79
2021/04/16 03:04:18;;;;;;;46.67;24.85;;;;;;;9.85;98.46;71658.81;5030183;28;20124;-84
2021/04/16 03:06:45;;;;;;;39.90;21.48;;;;;;;9.43;97.72;71605.69;5028343;28;20083;-83
2021/04/16 03:09:13;;;;;;;44.53;24.05;;;;;;;9.54;98.05;71623.09;5031837;28;20038;-84
2021/04/16 03:11:40;;;;;;;40.05;24.70;;;;;;;9.76;97.80;71645.94;5029854;28;20028;-82
2021/04/16 03:14:07;;;;;;;58.08;28.05;;;;;;;9.88;97.00;71662.38;5030311;28;20025;-84
2021/04/16 03:16:34;;;;;;;50.30;23.75;;;;;;;8.59;96.18;71511.47;5027893;28;20017;-84
2021/04/16 03:19:03;;;;;;;54.15;25.17;;;;;;;9.57;96.75;71626.66;5031679;28;20021;-84
2021/04/16 03:21:30;;;;;;;46.47;24.27;;;;;;;10.07;96.02;71684.41;5030292;28;20482;-82
2021/04/16 03:23:57;;;;;;;46.67;26.40;;;;;;;9.35;95.69;71598.31;5029932;28;20124;-84
2021/04/16 03:26:25;;;;;;;45.10;28.27;;;;;;;8.95;94.94;71550.38;5027636;28;20532;-84
2021/04/16 03:28:57;;;;;;;52.10;26.48;;;;;;;10.24;94.66;71701.31;5029976;28;20368;-84
2021/04/16 03:31:25;;;;;;;57.83;26.00;;;;;;;9.31;94.21;71591.41;5027154;28;20136;-84
2021/04/16 03:33:53;;;;;;;58.38;26.13;;;;;;;10.02;91.99;71678.44;5031695;28;20447;-84
2021/04/16 03:36:20;;;;;;;49.78;26.58;;;;;;;8.93;90.65;71552.88;5030999;28;20029;-84
2021/04/16 03:38:48;;;;;;;48.33;22.58;;;;;;;9.57;91.30;71621.19;5031028;28;20029;-84
2021/04/16 03:41:16;;;;;;;42.83;23.63;;;;;;;9.60;91.80;71624.75;5032494;28;20039;-83
2021/04/16 03:43:43;;;;;;;43.50;23.75;;;;;;;9.68;91.44;71639.75;5032529;28;20108;-84
2021/04/16 03:46:12;;;;;;;49.72;23.42;;;;;;;10.52;90.69;71730.75;5029782;28;20477;-84
2021/04/16 03:48:39;;;;;;;46.90;25.40;;;;;;;10.43;91.11;71722.16;5030165;28;20025;-83
2021/04/16 03:51:08;;;;;;;42.15;23.13;;;;;;;10.44;90.72;71726.72;5031269;28;20013;-83
2021/04/16 03:53:38;;;;;;;45.15;23.15;;;;;;;9.64;91.12;71632.25;5031121;28;20033;-83
2021/04/16 03:56:07;;;;;;;;;;;;;;;10.52;91.19;71736.25;5030805;28;20088;-80
2021/04/16 03:58:35;;;;;;;51.17;20.20;;;;;;;10.65;91.25;71750.53;5030650;28;19916;-80
2021/04/16 04:01:03;;;;;;;50.05;22.05;;;;;;;10.62;90.80;71744.22;5030599;28;20021;-80
2021/04/16 04:03:31;;;;;;;48.72;23.20;;;;;;;10.16;90.34;71693.94;5029285;28;20018;-80
2021/04/16 04:05:58;;;;;;;49.08;21.30;;;;;;;9.14;90.16;71575.13;5030687;28;20479;-81
2021/04/16 04:08:25;;;;;;;47.40;22.63;;;;;;;10.56;89.53;71734.31;5030008;28;20059;-80
2021/04/16 04:10:52;;;;;;;55.20;21.58;;;;;;;11.03;88.60;71788.53;5034042;28;20022;-80
2021/04/16 04:13:19;;;;;;;40.55;19.02;;;;;;;10.58;89.01;71740.03;5033178;28;20888;-82
2021/04/16 04:15:46;;;;;;;39.53;20.00;;;;;;;9.61;88.46;71625.94;5031159;28;20017;-80
2021/04/16 04:18:13;;;;;;;42.38;15.98;;;;;;;10.85;87.53;71767.66;5029391;28;20025;-80
2021/04/16 04:20:40;;;;;;;44.45;17.80;;;;;;;10.66;87.97;71748.97;5030519;28;20029;-80
2021/04/16 04:23:09;;;;;;;31.33;16.25;;;;;;;10.04;87.86;71680.25;5030212;28;20052;-80
2021/04/16 04:25:37;;;;;;;35.45;15.73;;;;;;;10.85;88.19;71773.16;5030624;28;20482;-81
2021/04/16 04:28:06;;;;;;;41.20;15.43;;;;;;;10.95;87.03;71785.09;5030880;28;20500;-80
2021/04/16 04:30:37;;;;;;;41.47;16.27;;;;;;;10.44;87.24;71721.22;5031086;28;20389;-80
2021/04/16 04:33:06;;;;;;;35.72;15.95;;;;;;;11.08;85.54;71797.25;5028003;28;20021;-80
2021/04/16 04:35:34;;;;;;;34.38;15.60;;;;;;;11.23;85.82;71817.25;5031483;28;20043;-74
2021/04/16 04:38:01;;;;;;;36.88;14.73;;;;;;;11.16;84.40;71808.91;5040652;28;20021;-84
2021/04/16 04:40:28;;;;;;;37.35;15.32;;;;;;;10.48;84.41;71725.38;5037630;28;20032;-83
2021/04/16 04:42:56;;;;;;;39.08;16.10;;;;;;;10.86;84.85;71774.38;5031614;28;20541;-85
2021/04/16 04:45:23;;;;;;;44.10;14.15;;;;;;;11.35;84.51;71831.56;5030597;28;20143;-86
2021/04/16 04:47:51;;;;;;;44.10;16.60;;;;;;;10.39;84.23;71718.59;5032354;28;20037;-88
2021/04/16 04:50:19;;;;;;;29.77;13.18;;;;;;;11.44;83.81;71841.09;5030924;28;20033;-84
2021/04/16 04:52:46;;;;;;;38.08;11.68;;;;;;;10.84;82.96;71766.47;5029884;28;20399;-84
2021/04/16 04:55:22;;;;;;;38.80;13.02;;;;;;;11.04;83.62;71795.81;5034129;28;20021;-84
2021/04/16 04:57:49;;;;;;;36.80;15.15;;;;;;;11.69;82.65;71864.81;5034872;28;20552;-83
2021/04/16 05:00:17;;;;;;;52.75;12.85;;;;;;;11.08;80.57;71797.84;5030896;28;20052;-84
2021/04/16 05:02:44;;;;;;;36.30;14.05;;;;;;;10.25;81.26;71701.91;5029330;28;20079;-84
2021/04/16 05:05:13;;;;;;;37.20;15.40;;;;;;;10.90;81.33;71771.50;5029778;28;20478;-84
2021/04/16 05:07:40;;;;;;;55.40;13.25;;;;;;;10.83;81.13;71771.41;5030523;28;20064;-84
2021/04/16 05:10:08;;;;;;;45.90;13.07;;;;;;;11.70;80.71;71868.75;5029873;28;20033;-84
2021/04/16 05:12:35;;;;;;;38.70;12.48;;;;;;;10.81;79.12;71769.59;5028951;28;20029;-84
2021/04/16 05:15:04;;;;;;;57.28;15.45;;;;;;;10.95;80.11;71785.69;5031428;28;20403;-83
2021/04/16 05:17:31;;;;;;;55.63;14.88;;;;;;;10.68;79.47;71748.59;5030598;28;20029;-84
2021/04/16 05:19:58;;;;;;;63.55;13.90;;;;;;;10.98;78.67;71788.66;5033122;28;20029;-82
2021/04/16 05:22:25;;;;;;;65.22;16.92;;;;;;;11.33;78.76;71825.84;5031436;28;20044;-84
2021/04/16 05:24:52;;;;;;;59.05;14.23;;;;;;;11.21;78.54;71812.75;5032464;28;20093;-84
2021/04/16 05:27:22;;;;;;;50.60;13.38;;;;;;;11.89;77.69;71893.56;5031771;28;20587;-84
2021/04/16 05:29:49;;;;;;;59.80;15.70;;;;;;;11.51;77.37;71849.44;5031542;28;20029;-84
2021/04/16 05:32:17;;;;;;;53.80;14.65;;;;;;;11.04;76.71;71795.81;5029679;28;20030;-84
2021/04/16 05:34:45;;;;;;;59.17;16.08;;;;;;;11.99;76.71;71904.28;5030743;28;20421;-84
2021/04/16 05:37:13;;;;;;;63.22;13.48;;;;;;;10.46;76.58;71726.34;5031026;28;20016;-82
2021/04/16 05:39:40;;;;;;;65.55;14.48;;;;;;;12.00;75.40;71905.50;5031130;28;20471;-84
2021/04/16 05:42:08;;;;;;;52.85;14.32;;;;;;;12.21;75.05;71923.84;5030103;28;20545;-84
2021/04/16 05:44:35;;;;;;;70.82;14.40;;;;;;;11.80;73.92;71882.84;5030682;28;20033;-83
2021/04/16 05:47:02;;;;;;;94.38;17.98;;;;;;;10.33;74.76;71708.69;5029300;28;20053;-83
2021/04/16 05:49:29;;;;;;;72.72;15.23;;;;;;;10.10;75.38;71687.97;5029557;28;20033;-85
2021/04/16 05:51:56;;;;;;;75.10;13.98;;;;;;;10.85;74.72;71773.16;5030596;28;20024;-85
2021/04/16 05:54:23;;;;;;;86.05;17.13;;;;;;;12.10;73.18;71914.09;5029525;28;20025;-83
2021/04/16 05:56:50;;;;;;;68.07;18.30;;;;;;;11.75;73.35;71871.38;5014929;28;20026;-83
2021/04/16 05:59:16;;;;;;;88.15;17.15;;;;;;;11.53;74.16;71851.25;5009686;28;20390;-85
2021/04/16 06:01:43;;;;;;;80.22;15.60;;;;;;;11.17;73.89;71810.72;5013550;28;20478;-84
2021/04/16 06:04:20;;;;;;;62.85;15.40;;;;;;;12.08;74.03;71909.56;5029170;28;20444;-84
2021/04/16 06:06:48;;;;;;;89.25;16.92;;;;;;;11.74;73.01;71870.19;5029152;28;20060;-85
2021/04/16 06:09:15;;;;;;;107.35;18.75;;;;;;;11.76;73.17;71878.66;5028998;28;20036;-84
2021/04/16 06:11:43;;;;;;;87.63;16.08;;;;;;;11.40;74.13;71836.34;5030108;28;20024;-84
2021/04/16 06:14:09;;;;;;;86.50;18.48;;;;;;;11.16;75.54;71808.91;5028720;28;20075;-84
2021/04/16 06:16:36;;;;;;;105.65;18.92;;;;;;;11.77;73.59;71879.84;5028714;28;20032;-83
2021/04/16 06:19:05;;;;;;;86.10;17.20;;;;;;;11.25;73.26;71819.66;5028770;28;20025;-84
2021/04/16 06:21:33;;;;;;;80.05;16.13;;;;;;;11.92;72.49;71896.56;5016244;28;20129;-85
2021/04/16 06:24:00;;;;;;;102.80;17.38;;;;;;;11.12;73.05;71804.16;5028007;28;20053;-84
2021/04/16 06:26:27;;;;;;;82.35;17.80;;;;;;;11.97;72.22;71899.16;5030185;28;20054;-84
2021/04/16 06:28:54;;;;;;;93.22;19.20;;;;;;;10.26;71.81;71706.44;5032637;28;20040;-83
2021/04/16 06:31:21;;;;;;;81.88;21.08;;;;;;;10.41;70.48;71723.72;5036847;28;20026;-85
2021/04/16 06:33:48;;;;;;;89.20;16.88;;;;;;;11.23;70.07;71811.75;5029673;28;20025;-83
2021/04/16 06:36:16;;;;;;;95.68;19.00;;;;;;;10.64;69.19;71749.34;5015066;28;20025;-83
2021/04/16 06:38:45;;;;;;;96.70;18.65;;;;;;;10.40;67.85;71719.78;5028880;28;20025;-84
2021/04/16 06:41:20;;;;;;;90.65;17.58;;;;;;;11.66;67.72;71863.41;5028542;28;20092;-84
2021/04/16 06:43:57;;;;;;;104.63;20.23;;;;;;;11.52;67.01;71847.88;5027662;28;20037;-83
2021/04/16 06:46:46;;;;;;;117.53;20.90;;;;;;;11.98;67.30;71898.19;5030392;28;20479;-84
2021/04/16 06:49:27;;;;;;;98.20;20.60;;;;;;;11.40;65.96;71836.94;5028895;28;20387;-84
2021/04/16 06:51:59;;;;;;;;;;;;;;;12.07;66.41;71913.88;5035113;28;20109;-84
2021/04/16 06:54:32;;;;;;;94.10;17.98;;;;;;;11.80;65.63;71880.09;5031867;28;19905;-84
2021/04/16 06:57:00;;;;;;;82.63;18.42;;;;;;;11.03;62.56;71789.13;5031975;28;20026;-84
2021/04/16 06:59:31;;;;;;;83.50;17.35;;;;;;;11.91;64.46;71890.44;5031689;28;20017;-85
2021/04/16 07:02:03;;;;;;;113.82;21.23;;;;;;;11.51;64.48;71849.44;5031995;28;20172;-84
2021/04/16 07:04:41;;;;;;;93.43;17.98;;;;;;;12.13;63.46;71920.44;5031578;28;20006;-83
2021/04/16 07:07:41;;;;;;;103.55;18.65;;;;;;;12.30;64.83;71937.38;5031892;28;20037;-84
2021/04/16 07:10:24;;;;;;;98.45;17.33;;;;;;;12.27;67.17;71933.78;5032298;28;20041;-84
2021/04/16 07:12:53;;;;;;;88.03;20.40;;;;;;;11.73;64.55;71874.50;5031776;28;20057;-83
2021/04/16 07:15:46;;;;;;;85.32;14.15;;;;;;;11.19;64.08;71812.50;5032302;28;20116;-84
2021/04/16 07:18:15;;;;;;;78.53;14.02;;;;;;;11.55;62.64;71854.22;5031130;28;20091;-84
2021/04/16 07:20:42;;;;;;;87.25;16.75;;;;;;;11.42;60.77;71839.31;5044108;28;20006;-83
2021/04/16 07:23:10;;;;;;;120.30;19.02;;;;;;;11.18;61.47;71811.31;5057452;28;20037;-92
2021/04/16 07:26:10;;;;;;;84.65;16.23;;;;;;;11.32;62.59;71825.25;5026729;28;20033;-95
2021/04/16 07:28:45;;;;;;;;;;;;;;;11.12;62.48;71798.66;5022782;28;20057;-93
2021/04/16 07:31:46;;;;;;;92.13;16.05;;;;;;;11.22;61.08;71811.19;5013944;28;19917;-83
2021/04/16 07:34:33;;;;;;;74.05;14.73;;;;;;;10.97;58.29;71786.88;5027295;28;20514;-85
2021/04/16 07:37:12;;;;;;;80.13;14.48;;;;;;;11.18;57.48;71808.56;5034640;28;20030;-85
2021/04/16 07:39:46;;;;;;;77.35;14.93;;;;;;;10.84;57.23;71766.47;5030963;28;20041;-89
2021/04/16 07:42:18;;;;;;;84.35;13.95;;;;;;;11.15;55.99;71804.97;5029480;28;20498;-85
2021/04/16 07:45:02;;;;;;;73.75;11.90;;;;;;;11.33;54.12;71826.44;5036054;28;20056;-85
2021/04/16 07:47:32;;;;;;;65.60;11.82;;;;;;;10.77;56.20;71762.06;5031126;28;20033;-86
2021/04/16 07:50:07;;;;;;;85.47;12.95;;;;;;;9.63;56.14;71630.47;5031861;28;20026;-84
2021/04/16 07:52:43;;;;;;;77.28;12.85;;;;;;;11.31;58.82;71826.22;5033176;28;20095;-86
2021/04/16 07:55:33;;;;;;;76.28;14.63;;;;;;;11.43;57.56;71837.16;5030599;28;20029;-87
2021/04/16 07:58:02;;;;;;;68.22;13.85;;;;;;;10.65;58.19;71750.53;5031322;28;20037;-86
2021/04/16 08:00:41;;;;;;;78.10;16.58;;;;;;;10.27;59.00;71701.53;5032483;28;20018;-86
2021/04/16 08:03:12;;;;;;;64.57;13.98;;;;;;;10.03;56.18;71676.91;5032336;28;20143;-86
2021/04/16 08:05:41;;;;;;;65.60;12.65;;;;;;;11.47;57.46;71839.78;5030371;28;20075;-85
2021/04/16 08:08:25;;;;;;;73.30;13.45;;;;;;;11.34;56.14;71827.63;5031415;28;20033;-85
2021/04/16 08:11:08;;;;;;;76.57;15.48;;;;;;;10.58;58.09;71742.78;5031450;28;20100;-85
2021/04/16 08:13:53;;;;;;;71.05;11.68;;;;;;;10.72;54.93;71753.38;5030094;28;20033;-86
2021/04/16 08:16:24;;;;;;;68.22;12.27;;;;;;;11.01;55.80;71786.75;5030820;28;20114;-78
2021/04/16 08:19:14;;;;;;;72.55;13.68;;;;;;;10.87;53.50;71770.06;5028242;28;20039;-85
2021/04/16 08:22:10;;;;;;;58.38;10.32;;;;;;;10.71;53.06;71757.69;5032837;28;20075;-87
2021/04/16 08:24:49;;;;;;;77.72;11.52;;;;;;;10.86;53.45;71769.47;5030316;28;20368;-84
2021/04/16 08:27:33;;;;;;;64.70;10.80;;;;;;;10.77;53.48;71762.06;5032554;28;20100;-86
2021/04/16 08:30:06;;;;;;;56.55;11.00;;;;;;;10.15;54.75;71690.00;5031671;28;20087;-86
2021/04/16 08:32:50;;;;;;;65.60;12.85;;;;;;;10.79;54.68;71764.47;5031249;28;20091;-85
2021/04/16 08:35:39;;;;;;;69.22;12.60;;;;;;;10.56;54.59;71739.81;5025151;28;20088;-88
2021/04/16 08:38:10;;;;;;;68.40;12.13;;;;;;;10.07;55.67;71683.81;5022873;28;20430;-86
2021/04/16 08:40:42;;;;;;;71.35;11.93;;;;;;;9.65;56.27;71636.19;5032687;28;20054;-88
2021/04/16 08:43:15;;;;;;;70.22;11.70;;;;;;;10.42;56.50;71724.34;5033339;28;20021;-85
2021/04/16 08:45:42;;;;;;;71.03;14.50;;;;;;;10.76;56.88;71760.31;5021304;28;20041;-86
2021/04/16 08:48:27;;;;;;;72.68;14.13;;;;;;;9.74;56.24;71642.97;5032454;28;20041;-86
2021/04/16 08:50:59;;;;;;;74.82;11.80;;;;;;;10.77;56.04;71764.25;5032036;28;20080;-87
2021/04/16 08:53:27;;;;;;;78.90;11.60;;;;;;;9.74;54.98;71646.28;5046791;28;20136;-86
2021/04/16 08:55:54;;;;;;;64.70;12.70;;;;;;;10.58;55.42;71736.72;5029069;28;20026;-86
2021/04/16 08:58:38;;;;;;;64.63;11.15;;;;;;;10.91;54.79;71780.31;5029879;28;20029;-88
2021/04/16 09:01:07;;;;;;;71.68;15.27;;;;;;;10.69;56.17;71752.53;5031289;28;20273;-87
2021/04/16 09:03:44;;;;;;;88.45;14.63;;;;;;;10.94;55.74;71778.41;5016229;28;20120;-88
2021/04/16 09:06:27;;;;;;;67.20;11.80;;;;;;;10.03;54.57;71679.06;5011336;28;20079;-86
2021/04/16 09:08:54;;;;;;;67.75;11.93;;;;;;;10.34;54.08;71715.38;5020140;28;20044;-87
2021/04/16 09:11:45;;;;;;;51.92;10.65;;;;;;;10.52;53.81;71736.25;5036036;28;20208;-85
2021/04/16 09:14:25;;;;;;;78.75;15.27;;;;;;;10.49;54.65;71732.06;5030159;28;20033;-86
2021/04/16 09:16:58;;;;;;;71.90;11.10;;;;;;;10.63;54.13;71746.00;5044554;28;20057;-87
2021/04/16 09:19:28;;;;;;;72.63;15.20;;;;;;;10.68;53.97;71751.34;5022093;28;20483;-90
2021/04/16 09:22:42;;;;;;;50.17;13.02;;;;;;;10.38;54.13;71714.03;5026947;28;20033;-87
2021/04/16 09:25:34;;;;;;;80.78;12.68;;;;;;;9.83;53.92;71656.41;5024959;28;20037;-87
2021/04/16 09:28:31;;;;;;;60.97;11.73;;;;;;;10.45;54.72;71727.31;5010335;28;20084;-89
2021/04/16 09:31:19;;;;;;;65.90;10.43;;;;;;;10.21;55.62;71700.47;5021143;28;20037;-88
2021/04/16 09:33:46;;;;;;;81.28;10.75;;;;;;;9.11;55.86;71574.31;5034389;28;20072;-89
2021/04/16 09:36:33;;;;;;;65.32;10.63;;;;;;;10.29;56.00;71706.06;5044635;28;20093;-90
2021/04/16 09:39:28;;;;;;;77.25;13.98;;;;;;;9.30;56.13;71596.31;5056579;28;20048;-85
2021/04/16 09:41:55;;;;;;;77.18;10.18;;;;;;;9.26;55.05;71590.94;5050693;28;20056;-87
2021/04/16 09:44:29;;;;;;;47.58;11.10;;;;;;;10.19;54.95;71695.34;5043978;28;20471;-88
2021/04/16 09:47:02;;;;;;;68.25;10.60;;;;;;;8.52;54.49;71503.13;5038763;28;20037;-86
2021/04/16 09:49:57;;;;;;;90.68;13.52;;;;;;;9.67;53.91;71633.06;5033725;28;20026;-87
2021/04/16 09:52:27;;;;;;;63.72;11.68;;;;;;;10.11;53.43;71688.59;5031903;28;20033;-88
2021/04/16 09:54:54;;;;;;;51.30;11.18;;;;;;;8.81;53.85;71539.19;5031711;28;20063;-87
2021/04/16 09:57:21;;;;;;;68.55;12.50;;;;;;;9.97;53.64;71673.09;5032419;28;20037;-85
2021/04/16 09:59:48;;;;;;;61.88;10.50;;;;;;;9.69;54.68;71640.94;5027925;28;20033;-89
2021/04/16 10:02:21;;;;;;;66.95;13.57;;;;;;;8.05;55.54;71446.88;5030690;28;20036;-88
2021/04/16 10:04:59;;;;;;;57.85;10.27;;;;;;;9.78;55.45;71647.72;5047885;28;20075;-88
2021/04/16 10:07:54;;;;;;;62.83;11.02;;;;;;;9.59;55.59;71626.31;5021339;28;20521;-86
2021/04/16 10:10:45;;;;;;;51.67;10.93;;;;;;;9.24;56.57;71585.81;5011522;28;20029;-87
2021/04/16 10:13:23;;;;;;;80.30;12.35;;;;;;;9.79;55.39;71649.50;5031057;28;20079;-87
2021/04/16 10:15:56;;;;;;;66.82;12.43;;;;;;;9.64;55.74;71632.25;5020050;28;20108;-85
2021/04/16 10:18:35;;;;;;;50.15;11.88;;;;;;;9.70;57.15;71642.13;5062875;28;20033;-87
2021/04/16 10:21:08;;;;;;;57.33;10.48;;;;;;;9.76;56.32;71645.94;5035370;28;20045;-87
2021/04/16 10:23:39;;;;;;;71.93;13.95;;;;;;;9.47;56.18;71612.00;5031999;28;20040;-86
2021/04/16 10:36:07;;;;;;;61.53;11.95;;;;;;;8.92;55.13;71546.19;5031153;28;20843;-86
2021/04/16 10:48:08;;;;;;;62.72;10.13;;;;;;;9.69;57.19;71637.63;5034959;28;20044;-86
2021/04/16 12:39:06;;;;;;;82.78;14.77;;;;;;;8.44;70.23;71497.53;5027109;28;20031;-88
2021/04/16 12:41:39;;;;;;;68.13;12.95;;;;;;;9.46;70.02;71608.69;5029111;28;20111;-88
2021/04/16 12:44:07;;;;;;;58.63;14.20;;;;;;;8.86;69.36;71540.25;5031311;28;20566;-89
2021/04/16 12:46:37;;;;;;;53.65;14.18;;;;;;;9.58;69.83;71627.84;5012303;28;20033;-89
2021/04/16 12:49:05;;;;;;;46.72;9.27;;;;;;;8.54;69.42;71506.13;5012624;28;20088;-88
2021/04/16 12:51:33;;;;;;;80.82;15.30;;;;;;;9.32;69.93;71598.09;5029828;28;20034;-89
2021/04/16 12:53:59;;;;;;;61.90;12.05;;;;;;;9.49;69.44;71617.13;5032324;28;20029;-89
2021/04/16 12:56:44;;;;;;;72.78;14.73;;;;;;;8.85;70.26;71541.81;5025169;28;20124;-88
2021/04/16 12:59:20;;;;;;;67.00;11.77;;;;;;;9.67;69.36;71638.56;5024559;28;20033;-89
2021/04/16 13:01:49;;;;;;;51.45;11.38;;;;;;;9.61;70.01;71628.69;5034389;28;20120;-89
2021/04/16 13:04:18;;;;;;;74.10;14.00;;;;;;;9.49;69.33;71611.63;5033461;28;20108;-88
2021/04/16 13:06:47;;;;;;;77.45;16.45;;;;;;;9.01;69.49;71560.25;5027735;28;20033;-89
2021/04/16 13:09:16;;;;;;;71.10;15.25;;;;;;;9.28;69.19;71590.59;5037285;28;20586;-89
2021/04/16 13:11:44;;;;;;;73.05;14.15;;;;;;;9.09;69.64;71571.31;5035829;28;20037;-93
2021/04/16 13:14:10;;;;;;;79.10;16.50;;;;;;;9.62;69.02;71627.13;5033168;28;20084;-92
2021/04/16 13:16:38;;;;;;;76.18;14.82;;;;;;;9.48;69.45;71615.94;5038331;28;20017;-92
2021/04/16 13:19:11;;;;;;;78.97;11.60;;;;;;;9.62;69.60;71627.13;5036801;28;20053;-92
2021/04/16 13:21:41;;;;;;;70.50;15.02;;;;;;;9.07;68.76;71569.53;5037238;28;20037;-93
2021/04/16 13:24:11;;;;;;;58.88;14.45;;;;;;;8.12;68.95;71457.31;5047249;28;20033;-92
2021/04/16 13:26:38;;;;;;;63.53;16.23;;;;;;;9.67;68.28;71638.56;5056429;28;20099;-90
2021/04/16 13:29:05;;;;;;;68.45;13.15;;;;;;;9.31;68.19;71594.16;5050682;28;20030;-92
2021/04/16 13:31:35;;;;;;;67.75;14.68;;;;;;;9.34;66.86;71600.47;5039395;28;20032;-90
2021/04/16 13:34:03;;;;;;;58.80;12.27;;;;;;;8.38;66.17;71489.81;5044842;28;20020;-90
2021/04/16 13:36:31;;;;;;;57.97;13.50;;;;;;;9.57;66.39;71623.94;5054966;28;20033;-92
2021/04/16 13:39:00;;;;;;;55.17;11.68;;;;;;;9.34;65.94;71595.00;5028835;28;20022;-91
2021/04/16 13:41:27;;;;;;;63.22;13.13;;;;;;;8.83;66.05;71538.81;5050946;28;20030;-90
2021/04/16 13:43:55;;;;;;;61.72;11.40;;;;;;;9.38;66.48;71599.16;5060729;28;20033;-89
2021/04/16 13:48:49;;;;;;;62.95;15.02;;;;;;;9.51;66.40;71616.78;5037514;27;20399;-89
2021/04/16 13:51:20;;;;;;;74.10;14.32;;;;;;;9.02;66.56;71563.56;4994991;28;20591;-90
2021/04/16 13:53:47;;;;;;;60.65;13.45;;;;;;;9.58;66.47;71628.44;4977019;28;20512;-91